sensor_id;sensor_type;location;lat;lon;timestamp;P1;durP1;ratioP1;P2;durP2;ratioP2
15929;SDS011;8064;51.142;4.780;2023-05-19T00:00:54;22.17;;;20.37;;
15929;SDS011;8064;51.142;4.780;2023-05-19T00:03:21;20.17;;;18.57;;
15929;SDS011;8064;51.142;4.780;2023-05-19T00:05:48;21.13;;;19.53;;
15929;SDS011;8064;51.142;4.780;2023-05-19T00:08:17;21.77;;;20.10;;
15929;SDS011;8064;51.142;4.780;2023-05-19T00:10:44;21.80;;;20.07;;
15929;SDS011;8064;51.142;4.780;2023-05-19T00:13:10;21.30;;;19.87;;
15929;SDS011;8064;51.142;4.780;2023-05-19T00:15:36;21.67;;;20.07;;
15929;SDS011;8064;51.142;4.780;2023-05-19T00:18:02;20.93;;;19.37;;
15929;SDS011;8064;51.142;4.780;2023-05-19T00:20:28;21.13;;;19.33;;
15929;SDS011;8064;51.142;4.780;2023-05-19T00:22:54;21.17;;;19.67;;
15929;SDS011;8064;51.142;4.780;2023-05-19T00:25:19;21.33;;;19.73;;
15929;SDS011;8064;51.142;4.780;2023-05-19T00:27:45;21.13;;;19.70;;
15929;SDS011;8064;51.142;4.780;2023-05-19T00:30:11;23.23;;;21.77;;
15929;SDS011;8064;51.142;4.780;2023-05-19T00:32:37;22.80;;;21.20;;
15929;SDS011;8064;51.142;4.780;2023-05-19T00:35:03;22.33;;;20.60;;
15929;SDS011;8064;51.142;4.780;2023-05-19T00:37:29;21.73;;;20.03;;
15929;SDS011;8064;51.142;4.780;2023-05-19T00:39:55;21.97;;;20.43;;
15929;SDS011;8064;51.142;4.780;2023-05-19T00:42:22;20.77;;;19.10;;
15929;SDS011;8064;51.142;4.780;2023-05-19T00:44:47;22.43;;;20.80;;
15929;SDS011;8064;51.142;4.780;2023-05-19T00:47:13;21.03;;;19.23;;
15929;SDS011;8064;51.142;4.780;2023-05-19T00:49:39;22.40;;;20.47;;
15929;SDS011;8064;51.142;4.780;2023-05-19T00:52:05;22.80;;;21.27;;
15929;SDS011;8064;51.142;4.780;2023-05-19T00:54:32;21.67;;;20.10;;
15929;SDS011;8064;51.142;4.780;2023-05-19T00:56:58;22.07;;;20.17;;
15929;SDS011;8064;51.142;4.780;2023-05-19T00:59:25;23.17;;;21.47;;
15929;SDS011;8064;51.142;4.780;2023-05-19T01:01:51;21.40;;;19.60;;
15929;SDS011;8064;51.142;4.780;2023-05-19T01:04:17;22.23;;;20.67;;
15929;SDS011;8064;51.142;4.780;2023-05-19T01:06:46;20.83;;;19.27;;
15929;SDS011;8064;51.142;4.780;2023-05-19T01:09:14;21.53;;;19.83;;
15929;SDS011;8064;51.142;4.780;2023-05-19T01:11:41;22.70;;;20.80;;
15929;SDS011;8064;51.142;4.780;2023-05-19T01:14:07;24.43;;;22.53;;
15929;SDS011;8064;51.142;4.780;2023-05-19T01:16:34;22.80;;;21.33;;
15929;SDS011;8064;51.142;4.780;2023-05-19T01:33:06;22.70;;;21.10;;
15929;SDS011;8064;51.142;4.780;2023-05-19T01:35:35;23.00;;;21.30;;
15929;SDS011;8064;51.142;4.780;2023-05-19T01:38:03;23.47;;;21.43;;
15929;SDS011;8064;51.142;4.780;2023-05-19T01:40:32;21.90;;;20.23;;
15929;SDS011;8064;51.142;4.780;2023-05-19T01:43:00;23.33;;;21.47;;
15929;SDS011;8064;51.142;4.780;2023-05-19T01:45:27;23.67;;;22.03;;
15929;SDS011;8064;51.142;4.780;2023-05-19T01:47:55;21.93;;;20.30;;
15929;SDS011;8064;51.142;4.780;2023-05-19T01:50:23;20.83;;;19.33;;
15929;SDS011;8064;51.142;4.780;2023-05-19T01:52:49;22.90;;;21.17;;
15929;SDS011;8064;51.142;4.780;2023-05-19T01:55:15;22.23;;;20.23;;
15929;SDS011;8064;51.142;4.780;2023-05-19T01:57:46;21.77;;;20.00;;
15929;SDS011;8064;51.142;4.780;2023-05-19T02:00:30;20.97;;;19.07;;
15929;SDS011;8064;51.142;4.780;2023-05-19T02:05:35;24.37;;;22.07;;
15929;SDS011;8064;51.142;4.780;2023-05-19T02:08:11;22.23;;;20.53;;
15929;SDS011;8064;51.142;4.780;2023-05-19T02:10:39;21.27;;;19.87;;
15929;SDS011;8064;51.142;4.780;2023-05-19T02:13:07;23.97;;;22.20;;
15929;SDS011;8064;51.142;4.780;2023-05-19T02:15:39;22.60;;;20.87;;
15929;SDS011;8064;51.142;4.780;2023-05-19T02:18:08;21.53;;;19.77;;
15929;SDS011;8064;51.142;4.780;2023-05-19T02:20:36;22.80;;;21.00;;
15929;SDS011;8064;51.142;4.780;2023-05-19T02:23:03;21.20;;;19.50;;
15929;SDS011;8064;51.142;4.780;2023-05-19T02:25:29;21.70;;;20.03;;
15929;SDS011;8064;51.142;4.780;2023-05-19T02:27:56;24.40;;;22.33;;
15929;SDS011;8064;51.142;4.780;2023-05-19T02:30:22;21.23;;;19.73;;
15929;SDS011;8064;51.142;4.780;2023-05-19T02:32:48;22.73;;;20.43;;
15929;SDS011;8064;51.142;4.780;2023-05-19T02:35:14;22.73;;;21.10;;
15929;SDS011;8064;51.142;4.780;2023-05-19T02:37:40;23.73;;;21.63;;
15929;SDS011;8064;51.142;4.780;2023-05-19T02:40:06;23.90;;;21.97;;
15929;SDS011;8064;51.142;4.780;2023-05-19T02:42:32;23.60;;;21.77;;
15929;SDS011;8064;51.142;4.780;2023-05-19T02:44:59;24.00;;;22.10;;
15929;SDS011;8064;51.142;4.780;2023-05-19T02:47:25;23.50;;;21.83;;
15929;SDS011;8064;51.142;4.780;2023-05-19T02:49:50;22.10;;;20.40;;
15929;SDS011;8064;51.142;4.780;2023-05-19T02:52:16;24.13;;;22.33;;
15929;SDS011;8064;51.142;4.780;2023-05-19T02:54:42;22.47;;;20.50;;
15929;SDS011;8064;51.142;4.780;2023-05-19T02:57:08;20.17;;;18.67;;
15929;SDS011;8064;51.142;4.780;2023-05-19T02:59:34;22.87;;;20.87;;
15929;SDS011;8064;51.142;4.780;2023-05-19T03:02:00;22.07;;;20.17;;
15929;SDS011;8064;51.142;4.780;2023-05-19T03:04:27;26.30;;;24.40;;
15929;SDS011;8064;51.142;4.780;2023-05-19T03:06:53;22.10;;;20.30;;
15929;SDS011;8064;51.142;4.780;2023-05-19T03:09:19;22.53;;;20.53;;
15929;SDS011;8064;51.142;4.780;2023-05-19T03:11:45;22.97;;;21.07;;
15929;SDS011;8064;51.142;4.780;2023-05-19T03:14:11;22.33;;;20.73;;
15929;SDS011;8064;51.142;4.780;2023-05-19T03:16:38;23.57;;;21.90;;
15929;SDS011;8064;51.142;4.780;2023-05-19T03:19:06;22.97;;;20.80;;
15929;SDS011;8064;51.142;4.780;2023-05-19T03:21:32;22.37;;;20.50;;
15929;SDS011;8064;51.142;4.780;2023-05-19T03:23:59;22.80;;;20.70;;
15929;SDS011;8064;51.142;4.780;2023-05-19T03:26:25;21.60;;;19.87;;
15929;SDS011;8064;51.142;4.780;2023-05-19T03:28:51;23.73;;;21.83;;
15929;SDS011;8064;51.142;4.780;2023-05-19T03:31:17;23.17;;;21.40;;
15929;SDS011;8064;51.142;4.780;2023-05-19T03:33:42;24.10;;;22.20;;
15929;SDS011;8064;51.142;4.780;2023-05-19T03:36:08;22.53;;;20.93;;
15929;SDS011;8064;51.142;4.780;2023-05-19T03:38:36;22.60;;;20.93;;
15929;SDS011;8064;51.142;4.780;2023-05-19T03:41:02;22.63;;;21.00;;
15929;SDS011;8064;51.142;4.780;2023-05-19T03:43:28;22.53;;;20.80;;
15929;SDS011;8064;51.142;4.780;2023-05-19T03:45:54;22.87;;;21.27;;
15929;SDS011;8064;51.142;4.780;2023-05-19T03:48:20;22.20;;;20.57;;
15929;SDS011;8064;51.142;4.780;2023-05-19T03:50:46;23.93;;;22.30;;
15929;SDS011;8064;51.142;4.780;2023-05-19T03:53:12;22.87;;;21.27;;
15929;SDS011;8064;51.142;4.780;2023-05-19T03:55:38;22.17;;;20.53;;
15929;SDS011;8064;51.142;4.780;2023-05-19T03:58:04;24.30;;;22.60;;
15929;SDS011;8064;51.142;4.780;2023-05-19T04:00:30;22.90;;;21.00;;
15929;SDS011;8064;51.142;4.780;2023-05-19T04:02:56;23.73;;;21.77;;
15929;SDS011;8064;51.142;4.780;2023-05-19T04:05:22;21.87;;;20.07;;
15929;SDS011;8064;51.142;4.780;2023-05-19T04:07:47;22.90;;;21.30;;
15929;SDS011;8064;51.142;4.780;2023-05-19T04:10:13;21.70;;;20.00;;
15929;SDS011;8064;51.142;4.780;2023-05-19T04:12:39;22.87;;;21.33;;
15929;SDS011;8064;51.142;4.780;2023-05-19T04:15:05;22.70;;;20.80;;
15929;SDS011;8064;51.142;4.780;2023-05-19T04:17:31;22.33;;;20.60;;
15929;SDS011;8064;51.142;4.780;2023-05-19T04:19:57;23.10;;;21.50;;
15929;SDS011;8064;51.142;4.780;2023-05-19T04:22:23;24.33;;;22.50;;
15929;SDS011;8064;51.142;4.780;2023-05-19T04:24:49;23.33;;;21.43;;
15929;SDS011;8064;51.142;4.780;2023-05-19T04:27:17;24.50;;;22.80;;
15929;SDS011;8064;51.142;4.780;2023-05-19T04:29:43;24.83;;;22.97;;
15929;SDS011;8064;51.142;4.780;2023-05-19T04:32:10;23.03;;;21.03;;
15929;SDS011;8064;51.142;4.780;2023-05-19T04:34:36;25.83;;;23.83;;
15929;SDS011;8064;51.142;4.780;2023-05-19T04:37:05;24.67;;;22.80;;
15929;SDS011;8064;51.142;4.780;2023-05-19T04:39:31;23.73;;;22.07;;
15929;SDS011;8064;51.142;4.780;2023-05-19T04:41:57;25.70;;;23.77;;
15929;SDS011;8064;51.142;4.780;2023-05-19T04:44:23;23.97;;;22.10;;
15929;SDS011;8064;51.142;4.780;2023-05-19T04:46:50;22.53;;;20.63;;
15929;SDS011;8064;51.142;4.780;2023-05-19T04:49:18;24.00;;;22.03;;
15929;SDS011;8064;51.142;4.780;2023-05-19T04:51:44;25.50;;;23.40;;
15929;SDS011;8064;51.142;4.780;2023-05-19T04:54:14;24.30;;;22.50;;
15929;SDS011;8064;51.142;4.780;2023-05-19T04:56:39;27.30;;;25.30;;
15929;SDS011;8064;51.142;4.780;2023-05-19T04:59:08;25.93;;;24.03;;
15929;SDS011;8064;51.142;4.780;2023-05-19T05:01:34;25.43;;;23.50;;
15929;SDS011;8064;51.142;4.780;2023-05-19T05:04:04;27.23;;;25.47;;
15929;SDS011;8064;51.142;4.780;2023-05-19T05:06:31;26.87;;;24.87;;
15929;SDS011;8064;51.142;4.780;2023-05-19T05:08:57;28.67;;;26.37;;
15929;SDS011;8064;51.142;4.780;2023-05-19T05:11:24;25.63;;;23.53;;
15929;SDS011;8064;51.142;4.780;2023-05-19T05:13:50;28.23;;;26.23;;
15929;SDS011;8064;51.142;4.780;2023-05-19T05:16:16;29.07;;;27.03;;
15929;SDS011;8064;51.142;4.780;2023-05-19T05:18:42;30.40;;;28.03;;
15929;SDS011;8064;51.142;4.780;2023-05-19T05:21:10;28.57;;;26.60;;
15929;SDS011;8064;51.142;4.780;2023-05-19T05:23:36;29.10;;;27.00;;
15929;SDS011;8064;51.142;4.780;2023-05-19T05:26:04;29.37;;;27.13;;
15929;SDS011;8064;51.142;4.780;2023-05-19T05:28:39;29.00;;;27.00;;
15929;SDS011;8064;51.142;4.780;2023-05-19T05:31:05;30.57;;;28.37;;
15929;SDS011;8064;51.142;4.780;2023-05-19T05:33:31;30.33;;;27.83;;
15929;SDS011;8064;51.142;4.780;2023-05-19T05:35:57;31.17;;;29.07;;
15929;SDS011;8064;51.142;4.780;2023-05-19T05:38:23;30.93;;;28.77;;
15929;SDS011;8064;51.142;4.780;2023-05-19T05:40:48;28.77;;;26.80;;
15929;SDS011;8064;51.142;4.780;2023-05-19T05:43:14;33.03;;;30.80;;
15929;SDS011;8064;51.142;4.780;2023-05-19T05:45:40;31.33;;;29.40;;
15929;SDS011;8064;51.142;4.780;2023-05-19T05:48:05;32.27;;;30.03;;
15929;SDS011;8064;51.142;4.780;2023-05-19T05:50:32;30.33;;;28.13;;
15929;SDS011;8064;51.142;4.780;2023-05-19T05:52:58;32.57;;;30.17;;
15929;SDS011;8064;51.142;4.780;2023-05-19T05:55:26;30.93;;;28.93;;
15929;SDS011;8064;51.142;4.780;2023-05-19T05:57:52;30.60;;;28.80;;
15929;SDS011;8064;51.142;4.780;2023-05-19T06:00:18;31.67;;;29.57;;
15929;SDS011;8064;51.142;4.780;2023-05-19T06:02:44;31.47;;;29.20;;
15929;SDS011;8064;51.142;4.780;2023-05-19T06:05:11;31.43;;;29.20;;
15929;SDS011;8064;51.142;4.780;2023-05-19T06:07:38;30.03;;;27.97;;
15929;SDS011;8064;51.142;4.780;2023-05-19T06:10:05;32.73;;;30.37;;
15929;SDS011;8064;51.142;4.780;2023-05-19T06:12:31;36.57;;;34.10;;
15929;SDS011;8064;51.142;4.780;2023-05-19T06:14:58;33.33;;;31.13;;
15929;SDS011;8064;51.142;4.780;2023-05-19T06:17:24;34.90;;;32.43;;
15929;SDS011;8064;51.142;4.780;2023-05-19T06:19:50;36.17;;;33.70;;
15929;SDS011;8064;51.142;4.780;2023-05-19T06:22:16;36.40;;;34.10;;
15929;SDS011;8064;51.142;4.780;2023-05-19T06:24:42;34.70;;;32.40;;
15929;SDS011;8064;51.142;4.780;2023-05-19T06:27:08;36.90;;;34.17;;
15929;SDS011;8064;51.142;4.780;2023-05-19T06:29:34;34.60;;;32.03;;
15929;SDS011;8064;51.142;4.780;2023-05-19T06:32:00;37.17;;;34.47;;
15929;SDS011;8064;51.142;4.780;2023-05-19T06:34:26;35.70;;;33.30;;
15929;SDS011;8064;51.142;4.780;2023-05-19T06:36:52;36.90;;;34.37;;
15929;SDS011;8064;51.142;4.780;2023-05-19T06:39:17;36.13;;;33.67;;
15929;SDS011;8064;51.142;4.780;2023-05-19T06:41:43;36.07;;;33.63;;
15929;SDS011;8064;51.142;4.780;2023-05-19T06:44:09;36.57;;;34.03;;
15929;SDS011;8064;51.142;4.780;2023-05-19T06:46:35;36.83;;;34.33;;
15929;SDS011;8064;51.142;4.780;2023-05-19T06:49:01;35.37;;;33.07;;
15929;SDS011;8064;51.142;4.780;2023-05-19T06:51:27;39.67;;;36.87;;
15929;SDS011;8064;51.142;4.780;2023-05-19T06:53:53;39.47;;;36.53;;
15929;SDS011;8064;51.142;4.780;2023-05-19T06:56:20;37.57;;;35.20;;
15929;SDS011;8064;51.142;4.780;2023-05-19T06:58:46;39.27;;;36.67;;
15929;SDS011;8064;51.142;4.780;2023-05-19T07:01:12;36.20;;;33.83;;
15929;SDS011;8064;51.142;4.780;2023-05-19T07:03:38;37.90;;;35.23;;
15929;SDS011;8064;51.142;4.780;2023-05-19T07:06:04;39.27;;;36.63;;
15929;SDS011;8064;51.142;4.780;2023-05-19T07:08:30;36.63;;;34.33;;
15929;SDS011;8064;51.142;4.780;2023-05-19T07:10:56;39.53;;;36.93;;
15929;SDS011;8064;51.142;4.780;2023-05-19T07:13:21;36.37;;;33.90;;
15929;SDS011;8064;51.142;4.780;2023-05-19T07:15:47;37.97;;;35.50;;
15929;SDS011;8064;51.142;4.780;2023-05-19T07:18:13;34.77;;;32.27;;
15929;SDS011;8064;51.142;4.780;2023-05-19T07:20:39;36.93;;;34.43;;
15929;SDS011;8064;51.142;4.780;2023-05-19T07:23:05;36.67;;;34.13;;
15929;SDS011;8064;51.142;4.780;2023-05-19T07:25:31;34.37;;;31.97;;
15929;SDS011;8064;51.142;4.780;2023-05-19T07:27:57;36.20;;;33.73;;
15929;SDS011;8064;51.142;4.780;2023-05-19T07:30:23;36.63;;;34.20;;
15929;SDS011;8064;51.142;4.780;2023-05-19T07:32:51;35.83;;;33.23;;
15929;SDS011;8064;51.142;4.780;2023-05-19T07:35:17;37.50;;;35.30;;
15929;SDS011;8064;51.142;4.780;2023-05-19T07:37:44;37.70;;;34.97;;
15929;SDS011;8064;51.142;4.780;2023-05-19T07:40:09;35.97;;;33.47;;
15929;SDS011;8064;51.142;4.780;2023-05-19T07:42:35;36.50;;;34.20;;
15929;SDS011;8064;51.142;4.780;2023-05-19T07:45:01;34.33;;;32.27;;
15929;SDS011;8064;51.142;4.780;2023-05-19T07:47:28;35.33;;;32.93;;
15929;SDS011;8064;51.142;4.780;2023-05-19T07:49:54;33.30;;;31.13;;
15929;SDS011;8064;51.142;4.780;2023-05-19T07:52:20;36.50;;;34.27;;
15929;SDS011;8064;51.142;4.780;2023-05-19T07:54:46;35.47;;;33.27;;
15929;SDS011;8064;51.142;4.780;2023-05-19T07:57:12;33.57;;;31.27;;
15929;SDS011;8064;51.142;4.780;2023-05-19T07:59:38;35.37;;;33.03;;
15929;SDS011;8064;51.142;4.780;2023-05-19T08:02:04;34.60;;;32.47;;
15929;SDS011;8064;51.142;4.780;2023-05-19T08:04:30;34.03;;;31.77;;
15929;SDS011;8064;51.142;4.780;2023-05-19T08:06:56;31.50;;;29.43;;
15929;SDS011;8064;51.142;4.780;2023-05-19T08:09:23;34.27;;;32.17;;
15929;SDS011;8064;51.142;4.780;2023-05-19T08:11:48;34.13;;;32.20;;
15929;SDS011;8064;51.142;4.780;2023-05-19T08:14:14;32.53;;;30.17;;
15929;SDS011;8064;51.142;4.780;2023-05-19T08:16:40;35.20;;;32.77;;
15929;SDS011;8064;51.142;4.780;2023-05-19T08:19:07;35.83;;;33.30;;
15929;SDS011;8064;51.142;4.780;2023-05-19T08:21:33;33.70;;;31.67;;
15929;SDS011;8064;51.142;4.780;2023-05-19T08:23:59;33.83;;;31.63;;
15929;SDS011;8064;51.142;4.780;2023-05-19T08:26:26;34.43;;;32.30;;
15929;SDS011;8064;51.142;4.780;2023-05-19T08:28:52;33.10;;;31.00;;
15929;SDS011;8064;51.142;4.780;2023-05-19T08:31:18;36.23;;;33.80;;
15929;SDS011;8064;51.142;4.780;2023-05-19T08:33:44;38.00;;;35.57;;
15929;SDS011;8064;51.142;4.780;2023-05-19T08:36:10;36.93;;;34.80;;
15929;SDS011;8064;51.142;4.780;2023-05-19T08:38:36;37.97;;;35.13;;
15929;SDS011;8064;51.142;4.780;2023-05-19T08:41:02;37.87;;;35.00;;
15929;SDS011;8064;51.142;4.780;2023-05-19T08:43:28;35.80;;;33.63;;
15929;SDS011;8064;51.142;4.780;2023-05-19T08:45:54;37.73;;;35.20;;
15929;SDS011;8064;51.142;4.780;2023-05-19T08:48:20;39.67;;;36.77;;
15929;SDS011;8064;51.142;4.780;2023-05-19T08:53:35;37.75;;;35.35;;
15929;SDS011;8064;51.142;4.780;2023-05-19T08:56:04;40.55;;;38.05;;
15929;SDS011;8064;51.142;4.780;2023-05-19T08:58:46;38.30;;;35.92;;
15929;SDS011;8064;51.142;4.780;2023-05-19T09:01:14;38.28;;;35.95;;
15929;SDS011;8064;51.142;4.780;2023-05-19T09:03:40;38.22;;;35.83;;
15929;SDS011;8064;51.142;4.780;2023-05-19T09:06:08;40.28;;;37.78;;
15929;SDS011;8064;51.142;4.780;2023-05-19T09:08:48;41.05;;;38.50;;
15929;SDS011;8064;51.142;4.780;2023-05-19T09:11:14;38.25;;;35.92;;
15929;SDS011;8064;51.142;4.780;2023-05-19T09:13:40;38.95;;;36.75;;
15929;SDS011;8064;51.142;4.780;2023-05-19T09:16:06;38.47;;;36.05;;
15929;SDS011;8064;51.142;4.780;2023-05-19T09:18:32;35.92;;;33.88;;
15929;SDS011;8064;51.142;4.780;2023-05-19T09:20:58;37.10;;;35.03;;
15929;SDS011;8064;51.142;4.780;2023-05-19T09:23:27;33.15;;;31.42;;
15929;SDS011;8064;51.142;4.780;2023-05-19T09:25:55;36.20;;;34.20;;
15929;SDS011;8064;51.142;4.780;2023-05-19T09:28:22;32.35;;;30.42;;
15929;SDS011;8064;51.142;4.780;2023-05-19T09:30:48;34.72;;;32.45;;
15929;SDS011;8064;51.142;4.780;2023-05-19T09:33:22;34.97;;;32.88;;
15929;SDS011;8064;51.142;4.780;2023-05-19T09:35:48;36.30;;;34.03;;
15929;SDS011;8064;51.142;4.780;2023-05-19T09:40:55;32.88;;;30.83;;
15929;SDS011;8064;51.142;4.780;2023-05-19T09:43:22;32.90;;;31.10;;
15929;SDS011;8064;51.142;4.780;2023-05-19T09:45:48;33.88;;;31.70;;
15929;SDS011;8064;51.142;4.780;2023-05-19T09:48:19;34.00;;;32.10;;
15929;SDS011;8064;51.142;4.780;2023-05-19T09:50:44;33.55;;;31.40;;
15929;SDS011;8064;51.142;4.780;2023-05-19T09:53:13;34.58;;;32.47;;
15929;SDS011;8064;51.142;4.780;2023-05-19T09:55:39;32.63;;;30.75;;
15929;SDS011;8064;51.142;4.780;2023-05-19T09:58:06;33.88;;;31.70;;
15929;SDS011;8064;51.142;4.780;2023-05-19T10:00:33;32.08;;;30.20;;
15929;SDS011;8064;51.142;4.780;2023-05-19T10:03:00;34.92;;;32.75;;
15929;SDS011;8064;51.142;4.780;2023-05-19T10:05:28;34.95;;;32.97;;
15929;SDS011;8064;51.142;4.780;2023-05-19T10:07:55;35.90;;;33.72;;
15929;SDS011;8064;51.142;4.780;2023-05-19T10:10:21;36.00;;;34.00;;
15929;SDS011;8064;51.142;4.780;2023-05-19T10:12:47;35.05;;;33.15;;
15929;SDS011;8064;51.142;4.780;2023-05-19T10:15:16;34.63;;;32.78;;
15929;SDS011;8064;51.142;4.780;2023-05-19T10:17:44;34.45;;;32.55;;
15929;SDS011;8064;51.142;4.780;2023-05-19T10:20:11;37.10;;;34.92;;
15929;SDS011;8064;51.142;4.780;2023-05-19T10:22:38;39.90;;;37.28;;
15929;SDS011;8064;51.142;4.780;2023-05-19T10:25:05;36.35;;;34.15;;
15929;SDS011;8064;51.142;4.780;2023-05-19T10:27:34;38.28;;;36.08;;
15929;SDS011;8064;51.142;4.780;2023-05-19T10:30:06;36.67;;;34.67;;
15929;SDS011;8064;51.142;4.780;2023-05-19T10:32:34;34.05;;;31.92;;
15929;SDS011;8064;51.142;4.780;2023-05-19T10:38:09;36.50;;;34.47;;
15929;SDS011;8064;51.142;4.780;2023-05-19T10:43:47;36.53;;;34.38;;
15929;SDS011;8064;51.142;4.780;2023-05-19T10:46:32;36.58;;;34.53;;
15929;SDS011;8064;51.142;4.780;2023-05-19T10:48:58;35.97;;;33.88;;
15929;SDS011;8064;51.142;4.780;2023-05-19T10:51:34;34.90;;;33.05;;
15929;SDS011;8064;51.142;4.780;2023-05-19T10:54:01;34.03;;;32.13;;
15929;SDS011;8064;51.142;4.780;2023-05-19T10:56:29;34.35;;;32.08;;
15929;SDS011;8064;51.142;4.780;2023-05-19T10:58:57;34.47;;;32.50;;
15929;SDS011;8064;51.142;4.780;2023-05-19T11:04:09;34.70;;;32.65;;
15929;SDS011;8064;51.142;4.780;2023-05-19T11:06:36;34.65;;;32.67;;
15929;SDS011;8064;51.142;4.780;2023-05-19T11:11:49;33.47;;;31.48;;
15929;SDS011;8064;51.142;4.780;2023-05-19T11:14:18;33.42;;;31.52;;
15929;SDS011;8064;51.142;4.780;2023-05-19T11:16:47;33.00;;;30.90;;
15929;SDS011;8064;51.142;4.780;2023-05-19T11:21:55;33.53;;;31.42;;
15929;SDS011;8064;51.142;4.780;2023-05-19T11:24:33;33.80;;;31.92;;
15929;SDS011;8064;51.142;4.780;2023-05-19T11:27:16;33.70;;;31.75;;
15929;SDS011;8064;51.142;4.780;2023-05-19T11:29:55;32.70;;;30.90;;
15929;SDS011;8064;51.142;4.780;2023-05-19T11:32:25;31.92;;;30.23;;
15929;SDS011;8064;51.142;4.780;2023-05-19T11:34:53;32.08;;;30.38;;
15929;SDS011;8064;51.142;4.780;2023-05-19T11:37:20;32.03;;;30.38;;
15929;SDS011;8064;51.142;4.780;2023-05-19T11:39:46;32.78;;;30.95;;
15929;SDS011;8064;51.142;4.780;2023-05-19T11:42:12;33.28;;;31.30;;
15929;SDS011;8064;51.142;4.780;2023-05-19T11:44:38;32.80;;;30.90;;
15929;SDS011;8064;51.142;4.780;2023-05-19T11:47:05;31.92;;;29.92;;
15929;SDS011;8064;51.142;4.780;2023-05-19T11:49:32;31.70;;;29.95;;
15929;SDS011;8064;51.142;4.780;2023-05-19T11:51:59;32.45;;;30.55;;
15929;SDS011;8064;51.142;4.780;2023-05-19T11:54:36;33.63;;;31.65;;
15929;SDS011;8064;51.142;4.780;2023-05-19T11:57:06;32.75;;;30.95;;
15929;SDS011;8064;51.142;4.780;2023-05-19T11:59:35;32.80;;;30.77;;
15929;SDS011;8064;51.142;4.780;2023-05-19T12:02:14;32.67;;;30.77;;
15929;SDS011;8064;51.142;4.780;2023-05-19T12:04:42;34.53;;;32.50;;
15929;SDS011;8064;51.142;4.780;2023-05-19T12:07:09;30.63;;;28.80;;
15929;SDS011;8064;51.142;4.780;2023-05-19T12:09:36;32.85;;;30.90;;
15929;SDS011;8064;51.142;4.780;2023-05-19T12:12:02;33.30;;;31.02;;
15929;SDS011;8064;51.142;4.780;2023-05-19T12:14:28;35.30;;;32.95;;
15929;SDS011;8064;51.142;4.780;2023-05-19T12:16:56;34.25;;;32.38;;
15929;SDS011;8064;51.142;4.780;2023-05-19T12:19:22;33.83;;;31.95;;
15929;SDS011;8064;51.142;4.780;2023-05-19T12:21:50;31.42;;;29.73;;
15929;SDS011;8064;51.142;4.780;2023-05-19T12:24:16;32.08;;;30.08;;
15929;SDS011;8064;51.142;4.780;2023-05-19T12:26:43;33.80;;;31.90;;
15929;SDS011;8064;51.142;4.780;2023-05-19T12:29:09;33.88;;;32.03;;
15929;SDS011;8064;51.142;4.780;2023-05-19T12:31:37;33.38;;;31.08;;
15929;SDS011;8064;51.142;4.780;2023-05-19T12:34:03;31.75;;;29.65;;
15929;SDS011;8064;51.142;4.780;2023-05-19T12:36:30;31.17;;;29.25;;
15929;SDS011;8064;51.142;4.780;2023-05-19T12:38:56;33.60;;;31.70;;
15929;SDS011;8064;51.142;4.780;2023-05-19T12:41:23;33.67;;;31.77;;
15929;SDS011;8064;51.142;4.780;2023-05-19T12:43:51;33.47;;;31.55;;
15929;SDS011;8064;51.142;4.780;2023-05-19T12:46:18;30.83;;;29.23;;
15929;SDS011;8064;51.142;4.780;2023-05-19T12:48:44;32.08;;;30.20;;
15929;SDS011;8064;51.142;4.780;2023-05-19T12:51:22;30.52;;;28.98;;
15929;SDS011;8064;51.142;4.780;2023-05-19T12:53:48;33.15;;;30.90;;
15929;SDS011;8064;51.142;4.780;2023-05-19T12:56:14;31.15;;;29.15;;
15929;SDS011;8064;51.142;4.780;2023-05-19T12:58:41;31.30;;;29.42;;
15929;SDS011;8064;51.142;4.780;2023-05-19T13:01:14;31.42;;;29.50;;
15929;SDS011;8064;51.142;4.780;2023-05-19T13:03:41;31.17;;;29.27;;
15929;SDS011;8064;51.142;4.780;2023-05-19T13:06:07;31.25;;;29.27;;
15929;SDS011;8064;51.142;4.780;2023-05-19T13:08:34;31.70;;;29.80;;
15929;SDS011;8064;51.142;4.780;2023-05-19T13:11:00;31.92;;;30.08;;
15929;SDS011;8064;51.142;4.780;2023-05-19T13:13:26;31.13;;;29.20;;
15929;SDS011;8064;51.142;4.780;2023-05-19T13:15:52;29.02;;;27.30;;
15929;SDS011;8064;51.142;4.780;2023-05-19T13:18:18;31.65;;;29.85;;
15929;SDS011;8064;51.142;4.780;2023-05-19T13:20:44;29.70;;;28.17;;
15929;SDS011;8064;51.142;4.780;2023-05-19T13:23:11;30.77;;;29.08;;
15929;SDS011;8064;51.142;4.780;2023-05-19T13:25:38;30.38;;;28.70;;
15929;SDS011;8064;51.142;4.780;2023-05-19T13:28:05;31.85;;;30.05;;
15929;SDS011;8064;51.142;4.780;2023-05-19T13:30:33;31.38;;;29.48;;
15929;SDS011;8064;51.142;4.780;2023-05-19T13:33:00;28.35;;;26.70;;
15929;SDS011;8064;51.142;4.780;2023-05-19T13:35:26;30.63;;;28.90;;
15929;SDS011;8064;51.142;4.780;2023-05-19T13:37:52;30.58;;;28.73;;
15929;SDS011;8064;51.142;4.780;2023-05-19T13:40:18;31.25;;;29.33;;
15929;SDS011;8064;51.142;4.780;2023-05-19T13:42:44;31.20;;;29.52;;
15929;SDS011;8064;51.142;4.780;2023-05-19T13:45:10;32.13;;;29.95;;
15929;SDS011;8064;51.142;4.780;2023-05-19T13:47:36;30.38;;;28.48;;
15929;SDS011;8064;51.142;4.780;2023-05-19T13:50:02;29.27;;;27.70;;
15929;SDS011;8064;51.142;4.780;2023-05-19T13:52:29;30.50;;;28.70;;
15929;SDS011;8064;51.142;4.780;2023-05-19T13:54:55;29.20;;;27.40;;
15929;SDS011;8064;51.142;4.780;2023-05-19T13:57:22;29.75;;;28.13;;
15929;SDS011;8064;51.142;4.780;2023-05-19T13:59:50;29.27;;;27.45;;
15929;SDS011;8064;51.142;4.780;2023-05-19T14:02:16;29.38;;;27.83;;
15929;SDS011;8064;51.142;4.780;2023-05-19T14:04:42;29.85;;;28.02;;
15929;SDS011;8064;51.142;4.780;2023-05-19T14:07:08;28.30;;;26.45;;
15929;SDS011;8064;51.142;4.780;2023-05-19T14:09:34;29.13;;;27.58;;
15929;SDS011;8064;51.142;4.780;2023-05-19T14:12:00;30.52;;;28.73;;
15929;SDS011;8064;51.142;4.780;2023-05-19T14:14:26;29.80;;;27.90;;
15929;SDS011;8064;51.142;4.780;2023-05-19T14:16:52;28.90;;;27.27;;
15929;SDS011;8064;51.142;4.780;2023-05-19T14:19:18;29.67;;;27.70;;
15929;SDS011;8064;51.142;4.780;2023-05-19T14:21:44;30.77;;;28.97;;
15929;SDS011;8064;51.142;4.780;2023-05-19T14:24:10;29.13;;;27.43;;
15929;SDS011;8064;51.142;4.780;2023-05-19T14:26:35;28.70;;;27.03;;
15929;SDS011;8064;51.142;4.780;2023-05-19T14:29:01;29.00;;;27.13;;
15929;SDS011;8064;51.142;4.780;2023-05-19T14:31:27;28.95;;;27.35;;
15929;SDS011;8064;51.142;4.780;2023-05-19T14:33:53;30.57;;;28.83;;
15929;SDS011;8064;51.142;4.780;2023-05-19T14:36:19;28.57;;;27.03;;
15929;SDS011;8064;51.142;4.780;2023-05-19T14:38:45;29.70;;;28.00;;
15929;SDS011;8064;51.142;4.780;2023-05-19T14:41:11;29.35;;;27.75;;
15929;SDS011;8064;51.142;4.780;2023-05-19T14:43:36;29.88;;;28.05;;
15929;SDS011;8064;51.142;4.780;2023-05-19T14:46:02;29.00;;;27.30;;
15929;SDS011;8064;51.142;4.780;2023-05-19T14:48:28;30.00;;;28.08;;
15929;SDS011;8064;51.142;4.780;2023-05-19T14:50:54;29.50;;;27.50;;
15929;SDS011;8064;51.142;4.780;2023-05-19T14:53:19;30.40;;;28.73;;
15929;SDS011;8064;51.142;4.780;2023-05-19T14:55:46;29.52;;;27.58;;
15929;SDS011;8064;51.142;4.780;2023-05-19T14:58:13;30.10;;;28.40;;
15929;SDS011;8064;51.142;4.780;2023-05-19T15:00:41;29.27;;;27.67;;
15929;SDS011;8064;51.142;4.780;2023-05-19T15:03:07;29.40;;;27.83;;
15929;SDS011;8064;51.142;4.780;2023-05-19T15:05:33;32.30;;;30.00;;
15929;SDS011;8064;51.142;4.780;2023-05-19T15:08:00;30.27;;;28.60;;